Time;durP1;ratioP1;P1;durP2;ratioP2;P2;SDS_P1;SDS_P2;PMS_P1;PMS_P2;Temp;Humidity;BMP_temperature;BMP_pressure;BME280_temperature;BME280_humidity;BME280_pressure;Samples;Min_cycle;Max_cycle;Signal;HPM_P1;HPM_P2
2022/05/06 00:01:37;;;;;;;35.90;22.52;;;;;;;;;;5027623;28;20025;-62
2022/05/06 00:04:04;;;;;;;37.63;22.67;;;;;;;;;;5027363;28;20053;-61
2022/05/06 00:06:30;;;;;;;38.60;23.48;;;;;;;;;;5026968;28;20094;-62
2022/05/06 00:08:56;;;;;;;36.80;23.63;;;;;;;;;;5014221;28;20128;-62
2022/05/06 00:11:47;;;;;;;37.42;24.02;;;;;;;;;;5014442;28;20037;-61
2022/05/06 00:17:02;;;;;;;34.88;21.88;;;;;;;;;;5007782;28;20049;-62
2022/05/06 00:19:52;;;;;;;38.92;23.52;;;;;;;;;;5015189;28;20618;-62
2022/05/06 00:22:17;;;;;;;38.25;23.23;;;;;;;;;;5005610;28;20042;-62
2022/05/06 00:27:46;;;;;;;38.90;23.63;;;;;;;;;;5027499;28;20396;-62
2022/05/06 00:30:18;;;;;;;40.05;23.23;;;;;;;;;;5027498;28;20088;-61
2022/05/06 00:33:10;;;;;;;38.20;24.40;;;;;;;;;;5013162;28;20496;-61
2022/05/06 00:35:36;;;;;;;39.30;24.38;;;;;;;;;;5026166;28;20490;-61
2022/05/06 00:38:06;;;;;;;38.42;24.25;;;;;;;;;;5029918;28;20068;-62
2022/05/06 00:40:55;;;;;;;39.80;24.25;;;;;;;;;;5027413;28;20037;-62
2022/05/06 00:43:25;;;;;;;40.47;24.48;;;;;;;;;;5026991;28;20037;-61
2022/05/06 00:45:57;;;;;;;40.38;24.60;;;;;;;;;;5014259;28;20485;-65
2022/05/06 00:48:27;;;;;;;41.70;25.88;;;;;;;;;;5028323;28;20044;-66
2022/05/06 00:51:03;;;;;;;44.17;26.23;;;;;;;;;;5014997;28;20125;-66
2022/05/06 00:53:29;;;;;;;;;;;;;;;;;;5031254;28;20040;-65
2022/05/06 00:55:56;;;;;;;42.28;25.38;;;;;;;;;;5006447;28;19920;-65
2022/05/06 00:58:23;;;;;;;46.03;27.17;;;;;;;;;;5018919;28;20057;-65
2022/05/06 01:00:49;;;;;;;46.50;25.92;;;;;;;;;;5032458;28;20477;-65
2022/05/06 01:03:16;;;;;;;53.47;29.70;;;;;;;;;;5001318;28;20045;-66
2022/05/06 01:05:42;;;;;;;45.40;27.88;;;;;;;;;;5000315;28;20045;-65
2022/05/06 01:08:11;;;;;;;50.78;29.92;;;;;;;;;;5017365;28;20045;-65
2022/05/06 01:10:37;;;;;;;44.63;27.65;;;;;;;;;;5031609;28;20037;-65
2022/05/06 01:13:04;;;;;;;46.65;29.15;;;;;;;;;;5032512;28;20045;-65
2022/05/06 01:15:30;;;;;;;52.75;30.20;;;;;;;;;;5016788;28;20075;-65
2022/05/06 01:17:57;;;;;;;53.40;29.80;;;;;;;;;;5032041;28;20045;-66
2022/05/06 01:20:23;;;;;;;48.65;29.10;;;;;;;;;;5017884;28;20038;-65
2022/05/06 01:22:59;;;;;;;50.55;29.02;;;;;;;;;;5032275;28;20061;-65
2022/05/06 01:25:26;;;;;;;49.63;27.35;;;;;;;;;;5018961;28;20081;-65
2022/05/06 01:27:55;;;;;;;43.97;28.23;;;;;;;;;;5017060;28;20045;-65
2022/05/06 01:30:34;;;;;;;51.08;28.30;;;;;;;;;;5017586;28;20048;-66
2022/05/06 01:33:02;;;;;;;50.55;29.05;;;;;;;;;;5017664;28;20061;-65
2022/05/06 01:35:29;;;;;;;53.22;29.35;;;;;;;;;;5015304;28;21283;-65
2022/05/06 01:37:56;;;;;;;54.53;30.40;;;;;;;;;;5001845;28;20056;-65
2022/05/06 01:40:25;;;;;;;49.20;28.95;;;;;;;;;;5032043;28;20037;-65
2022/05/06 01:42:54;;;;;;;50.13;28.88;;;;;;;;;;5030749;28;20037;-65
2022/05/06 01:45:22;;;;;;;48.00;28.23;;;;;;;;;;5017453;28;20073;-65
2022/05/06 01:47:51;;;;;;;44.53;26.15;;;;;;;;;;5018097;28;20444;-66
2022/05/06 01:50:17;;;;;;;45.05;26.45;;;;;;;;;;5032985;28;20044;-65
2022/05/06 01:52:44;;;;;;;44.80;28.05;;;;;;;;;;5017271;28;20565;-66
2022/05/06 01:55:12;;;;;;;45.00;26.55;;;;;;;;;;5031777;28;20057;-66
2022/05/06 01:57:38;;;;;;;46.97;27.55;;;;;;;;;;5012339;28;20045;-65
2022/05/06 02:00:05;;;;;;;47.65;28.23;;;;;;;;;;5030814;28;20076;-66
2022/05/06 02:02:31;;;;;;;47.20;27.92;;;;;;;;;;5014643;28;20091;-66
2022/05/06 02:07:42;;;;;;;46.92;27.20;;;;;;;;;;5015012;28;20128;-65
2022/05/06 02:10:09;;;;;;;49.80;28.63;;;;;;;;;;5030799;28;20107;-65
2022/05/06 02:12:35;;;;;;;52.78;29.92;;;;;;;;;;5015498;28;20029;-66
2022/05/06 02:15:02;;;;;;;50.25;29.13;;;;;;;;;;5018441;28;20436;-65
2022/05/06 02:17:29;;;;;;;44.42;26.80;;;;;;;;;;5017356;28;20103;-65
2022/05/06 02:19:55;;;;;;;45.92;27.83;;;;;;;;;;5014506;28;20037;-65
2022/05/06 02:22:22;;;;;;;53.30;29.88;;;;;;;;;;5015815;28;20099;-66
2022/05/06 02:24:48;;;;;;;50.65;29.48;;;;;;;;;;5015800;28;20120;-65
2022/05/06 02:27:14;;;;;;;47.67;28.65;;;;;;;;;;5030860;28;20484;-61
2022/05/06 02:33:12;;;;;;;53.40;30.08;;;;;;;;;;5015037;28;20469;-61
2022/05/06 02:35:14;;;;;;;44.10;26.67;;;;;;;;;;5028012;28;20135;-61
2022/05/06 02:37:41;;;;;;;48.15;27.38;;;;;;;;;;4998125;28;20503;-61
2022/05/06 02:40:08;;;;;;;48.40;29.15;;;;;;;;;;5016451;28;20084;-61
2022/05/06 02:42:34;;;;;;;48.55;27.27;;;;;;;;;;5016254;28;20044;-61
2022/05/06 02:45:00;;;;;;;55.38;29.95;;;;;;;;;;5014137;28;20132;-61
2022/05/06 02:47:26;;;;;;;43.75;28.38;;;;;;;;;;5029320;28;20030;-61
2022/05/06 02:49:52;;;;;;;50.78;29.48;;;;;;;;;;5016533;28;20037;-61
2022/05/06 02:52:18;;;;;;;53.95;31.17;;;;;;;;;;5014376;28;21019;-61
2022/05/06 02:54:46;;;;;;;51.78;29.73;;;;;;;;;;5029737;28;20041;-61
2022/05/06 02:57:12;;;;;;;53.90;29.90;;;;;;;;;;5027713;28;20058;-61
2022/05/06 02:59:39;;;;;;;54.22;30.33;;;;;;;;;;5028847;28;20064;-61
2022/05/06 03:02:05;;;;;;;55.20;30.40;;;;;;;;;;5029444;28;20055;-61
2022/05/06 03:04:31;;;;;;;56.45;32.53;;;;;;;;;;5015917;28;20044;-61
2022/05/06 03:06:58;;;;;;;55.53;30.90;;;;;;;;;;5009078;28;20052;-61
2022/05/06 03:09:24;;;;;;;59.13;31.33;;;;;;;;;;5015837;28;20362;-61
2022/05/06 03:11:52;;;;;;;51.00;29.55;;;;;;;;;;5028519;28;20033;-61
2022/05/06 03:14:18;;;;;;;51.60;29.33;;;;;;;;;;5025353;28;20125;-61
2022/05/06 03:16:44;;;;;;;47.33;28.48;;;;;;;;;;5015799;28;20139;-61
2022/05/06 03:19:11;;;;;;;58.05;32.13;;;;;;;;;;5014425;28;20130;-61
2022/05/06 03:21:37;;;;;;;53.35;30.15;;;;;;;;;;5028499;28;20504;-61
2022/05/06 03:24:03;;;;;;;47.22;26.25;;;;;;;;;;5029434;28;20043;-61
2022/05/06 03:26:29;;;;;;;48.45;27.75;;;;;;;;;;5028444;28;20392;-61
2022/05/06 03:28:57;;;;;;;50.67;29.40;;;;;;;;;;5028655;28;20132;-65
2022/05/06 03:31:26;;;;;;;40.80;22.55;;;;;;;;;;5014130;28;20033;-65
2022/05/06 03:33:54;;;;;;;51.33;28.92;;;;;;;;;;5027818;28;20076;-65
2022/05/06 03:36:21;;;;;;;64.70;33.45;;;;;;;;;;5015978;28;20057;-65
2022/05/06 03:38:47;;;;;;;68.22;34.15;;;;;;;;;;5031096;28;20133;-65
2022/05/06 03:41:13;;;;;;;69.43;33.65;;;;;;;;;;5028737;28;20428;-65
2022/05/06 03:43:40;;;;;;;76.93;35.13;;;;;;;;;;5014708;28;20120;-65
2022/05/06 03:46:06;;;;;;;68.90;32.42;;;;;;;;;;5016228;28;20470;-65
2022/05/06 03:48:34;;;;;;;128.25;36.72;;;;;;;;;;5015423;28;20497;-65
2022/05/06 03:53:45;;;;;;;74.32;35.75;;;;;;;;;;5029627;28;20052;-65
2022/05/06 03:56:11;;;;;;;119.05;32.35;;;;;;;;;;5030141;28;20040;-65
2022/05/06 03:58:38;;;;;;;130.30;36.58;;;;;;;;;;5030331;28;20559;-65
2022/05/06 04:01:07;;;;;;;229.10;31.50;;;;;;;;;;5030628;28;20067;-65
2022/05/06 04:03:34;;;;;;;76.05;32.95;;;;;;;;;;5013810;28;20042;-65
2022/05/06 04:06:00;;;;;;;113.28;32.03;;;;;;;;;;5029443;28;20053;-65
2022/05/06 04:08:26;;;;;;;172.60;28.73;;;;;;;;;;5015147;28;20426;-66
2022/05/06 04:10:52;;;;;;;368.00;35.88;;;;;;;;;;5029612;28;20038;-66
2022/05/06 04:13:19;;;;;;;244.13;34.05;;;;;;;;;;5027907;28;20980;-65
2022/05/06 04:15:49;;;;;;;87.18;27.33;;;;;;;;;;5014400;28;20485;-65
2022/05/06 04:18:15;;;;;;;124.63;25.70;;;;;;;;;;4999957;28;20045;-65
2022/05/06 04:23:29;;;;;;;105.35;27.00;;;;;;;;;;5014732;28;20484;-65
2022/05/06 04:25:56;;;;;;;64.47;29.48;;;;;;;;;;5014876;28;20119;-66
2022/05/06 04:28:23;;;;;;;118.72;28.15;;;;;;;;;;5029307;28;20099;-65
2022/05/06 04:30:50;;;;;;;142.00;26.83;;;;;;;;;;5012658;28;20464;-65
2022/05/06 04:33:17;;;;;;;212.27;34.08;;;;;;;;;;5028603;28;20091;-65
2022/05/06 04:35:43;;;;;;;109.85;30.23;;;;;;;;;;5014562;28;20053;-65
2022/05/06 04:38:09;;;;;;;66.97;29.42;;;;;;;;;;5014336;28;20124;-65
2022/05/06 04:40:36;;;;;;;90.07;27.15;;;;;;;;;;4998275;28;20056;-65
2022/05/06 04:43:03;;;;;;;73.25;32.40;;;;;;;;;;5028482;28;20048;-65
2022/05/06 04:45:29;;;;;;;202.60;34.58;;;;;;;;;;5013532;28;20053;-65
2022/05/06 04:47:56;;;;;;;115.03;32.33;;;;;;;;;;5015214;28;20485;-65
2022/05/06 04:50:22;;;;;;;215.52;37.35;;;;;;;;;;5028065;28;20034;-65
2022/05/06 04:52:49;;;;;;;301.60;40.58;;;;;;;;;;5012290;28;20512;-65
2022/05/06 04:55:15;;;;;;;163.10;31.95;;;;;;;;;;5012798;28;20049;-65
2022/05/06 04:57:41;;;;;;;265.27;37.22;;;;;;;;;;5013756;28;20052;-65
2022/05/06 05:00:08;;;;;;;110.57;32.72;;;;;;;;;;5028040;28;20044;-65
2022/05/06 05:02:35;;;;;;;95.70;29.98;;;;;;;;;;5027325;28;20042;-65
2022/05/06 05:05:03;;;;;;;117.35;33.83;;;;;;;;;;5015566;28;20133;-66
2022/05/06 05:07:29;;;;;;;99.03;30.60;;;;;;;;;;5014434;28;20049;-65
2022/05/06 05:09:55;;;;;;;97.32;33.13;;;;;;;;;;5027017;28;20033;-65
2022/05/06 05:12:24;;;;;;;96.88;32.60;;;;;;;;;;5030262;28;20080;-65
2022/05/06 05:14:50;;;;;;;111.85;33.22;;;;;;;;;;5014390;28;20045;-66
2022/05/06 05:17:16;;;;;;;84.93;33.40;;;;;;;;;;5014877;28;20099;-66
2022/05/06 05:19:43;;;;;;;89.57;33.47;;;;;;;;;;5027666;28;20069;-66
2022/05/06 05:22:09;;;;;;;89.28;32.22;;;;;;;;;;5014654;28;20071;-66
2022/05/06 05:24:35;;;;;;;139.98;31.42;;;;;;;;;;5027889;28;20057;-66
2022/05/06 05:27:02;;;;;;;94.28;31.75;;;;;;;;;;5014555;28;20125;-66
2022/05/06 05:29:28;;;;;;;71.07;32.17;;;;;;;;;;5014970;28;20124;-66
2022/05/06 05:31:55;;;;;;;86.35;31.23;;;;;;;;;;5015777;28;20049;-65
2022/05/06 05:34:21;;;;;;;72.88;30.90;;;;;;;;;;5027451;28;20050;-66
2022/05/06 05:36:47;;;;;;;73.32;30.48;;;;;;;;;;5028098;28;20050;-66
2022/05/06 05:39:13;;;;;;;74.43;30.42;;;;;;;;;;5012904;28;20397;-66
2022/05/06 05:41:39;;;;;;;79.90;31.30;;;;;;;;;;5028561;28;20033;-66
2022/05/06 05:49:35;;;;;;;63.30;29.40;;;;;;;;;;5031993;28;20461;-66
2022/05/06 05:52:01;;;;;;;68.30;31.67;;;;;;;;;;5017771;28;20473;-66
2022/05/06 05:54:28;;;;;;;84.32;34.95;;;;;;;;;;5015962;28;20076;-65
2022/05/06 05:56:55;;;;;;;77.88;33.95;;;;;;;;;;5001169;28;20465;-66
2022/05/06 05:59:22;;;;;;;79.40;33.28;;;;;;;;;;5031722;28;20056;-65
2022/05/06 06:01:49;;;;;;;114.55;37.05;;;;;;;;;;5033225;28;20129;-66
2022/05/06 06:04:15;;;;;;;71.18;31.55;;;;;;;;;;5029677;28;20030;-65
2022/05/06 06:06:42;;;;;;;82.10;32.25;;;;;;;;;;5018236;28;20095;-66
2022/05/06 06:09:08;;;;;;;80.03;33.40;;;;;;;;;;5017055;28;20041;-66
2022/05/06 06:11:35;;;;;;;66.07;28.85;;;;;;;;;;5015436;28;20080;-66
2022/05/06 06:14:02;;;;;;;57.40;27.73;;;;;;;;;;5017621;28;20053;-65
2022/05/06 06:16:28;;;;;;;65.32;27.98;;;;;;;;;;5017999;28;20047;-65
2022/05/06 06:18:58;;;;;;;65.22;28.00;;;;;;;;;;5016693;28;20452;-66
2022/05/06 06:21:24;;;;;;;74.03;29.00;;;;;;;;;;5017442;28;20060;-66
2022/05/06 06:23:50;;;;;;;71.38;27.65;;;;;;;;;;5015262;28;20127;-66
2022/05/06 06:26:16;;;;;;;54.65;25.55;;;;;;;;;;5030328;28;20043;-66
2022/05/06 06:28:42;;;;;;;57.75;26.02;;;;;;;;;;5016780;28;21190;-66
2022/05/06 06:31:08;;;;;;;58.78;26.30;;;;;;;;;;5011824;28;20049;-65
2022/05/06 06:33:37;;;;;;;54.83;23.90;;;;;;;;;;5033245;28;20385;-65
2022/05/06 06:36:07;;;;;;;54.45;22.85;;;;;;;;;;5030402;28;20526;-65
2022/05/06 06:38:33;;;;;;;72.55;22.60;;;;;;;;;;5016597;28;20112;-66
2022/05/06 06:40:59;;;;;;;55.60;23.52;;;;;;;;;;5016776;28;20081;-66
2022/05/06 06:43:26;;;;;;;47.35;21.58;;;;;;;;;;5030849;28;20129;-66
2022/05/06 06:45:52;;;;;;;57.42;23.50;;;;;;;;;;5029335;28;20095;-65
2022/05/06 06:48:18;;;;;;;61.63;23.95;;;;;;;;;;5029267;28;20079;-65
2022/05/06 06:50:44;;;;;;;73.20;24.40;;;;;;;;;;5014494;28;20045;-66
2022/05/06 06:53:10;;;;;;;51.65;21.63;;;;;;;;;;5017395;28;20116;-66
2022/05/06 06:55:36;;;;;;;66.55;23.98;;;;;;;;;;5031631;28;20087;-66
2022/05/06 06:58:02;;;;;;;65.15;24.25;;;;;;;;;;5018189;28;20111;-66
2022/05/06 07:00:29;;;;;;;60.42;23.98;;;;;;;;;;5017433;28;20473;-65
2022/05/06 07:02:57;;;;;;;51.75;22.95;;;;;;;;;;5032942;28;20045;-66
2022/05/06 07:05:23;;;;;;;44.92;21.83;;;;;;;;;;5029439;28;20390;-65
2022/05/06 07:13:19;;;;;;;41.72;20.13;;;;;;;;;;5014412;28;20225;-66
2022/05/06 07:15:46;;;;;;;36.58;19.73;;;;;;;;;;5030099;28;20034;-65
2022/05/06 07:18:12;;;;;;;25.67;15.07;;;;;;;;;;5015911;28;20053;-65
2022/05/06 07:20:38;;;;;;;26.23;15.05;;;;;;;;;;5030376;28;20045;-65
2022/05/06 07:23:04;;;;;;;27.45;14.90;;;;;;;;;;5030442;28;20052;-65
2022/05/06 07:25:30;;;;;;;21.83;14.13;;;;;;;;;;5017968;28;20408;-65
2022/05/06 07:27:57;;;;;;;17.63;13.07;;;;;;;;;;5015907;28;20041;-66
2022/05/06 07:30:23;;;;;;;15.05;11.38;;;;;;;;;;5015248;28;20702;-65
2022/05/06 07:32:49;;;;;;;15.65;11.98;;;;;;;;;;5018406;28;20044;-65
2022/05/06 07:35:15;;;;;;;19.45;12.48;;;;;;;;;;5030074;28;20053;-65
2022/05/06 07:37:42;;;;;;;17.35;12.30;;;;;;;;;;5014439;28;20521;-66
2022/05/06 07:40:10;;;;;;;19.02;13.40;;;;;;;;;;5016272;28;20048;-65
2022/05/06 07:42:37;;;;;;;17.17;13.10;;;;;;;;;;5032135;28;20103;-65
2022/05/06 07:45:04;;;;;;;22.38;12.75;;;;;;;;;;5030083;28;20064;-65
2022/05/06 07:47:32;;;;;;;14.98;11.25;;;;;;;;;;5015541;28;20041;-65
2022/05/06 07:49:58;;;;;;;11.88;10.60;;;;;;;;;;5031015;28;20381;-65
2022/05/06 07:52:24;;;;;;;13.88;11.05;;;;;;;;;;5016243;28;20045;-66
2022/05/06 07:54:50;;;;;;;12.68;11.00;;;;;;;;;;5015369;28;20038;-66
2022/05/06 07:57:17;;;;;;;12.68;11.05;;;;;;;;;;5006494;28;20044;-66
2022/05/06 07:59:43;;;;;;;15.95;10.82;;;;;;;;;;5018959;28;20057;-66
2022/05/06 08:04:54;;;;;;;16.45;11.05;;;;;;;;;;5041139;28;20049;-65
2022/05/06 08:07:20;;;;;;;18.27;11.00;;;;;;;;;;5041440;28;20612;-66
2022/05/06 08:09:46;;;;;;;14.25;11.13;;;;;;;;;;5039150;28;20056;-66
2022/05/06 08:12:13;;;;;;;12.05;10.75;;;;;;;;;;5045277;28;20134;-66
2022/05/06 08:14:39;;;;;;;18.00;10.38;;;;;;;;;;5018079;28;20045;-66
2022/05/06 08:17:06;;;;;;;11.65;9.63;;;;;;;;;;5017444;28;20083;-65
2022/05/06 08:19:33;;;;;;;12.57;9.80;;;;;;;;;;5018449;28;20500;-66
2022/05/06 08:21:59;;;;;;;10.90;9.77;;;;;;;;;;5041099;28;20045;-66
2022/05/06 08:24:25;;;;;;;11.55;9.70;;;;;;;;;;5042823;28;20032;-66
2022/05/06 08:26:51;;;;;;;12.50;10.52;;;;;;;;;;5045273;28;20064;-66
2022/05/06 08:29:17;;;;;;;13.40;9.75;;;;;;;;;;4999025;28;20056;-66
2022/05/06 08:31:43;;;;;;;10.52;9.43;;;;;;;;;;5016164;28;20053;-66
2022/05/06 08:34:10;;;;;;;12.13;9.07;;;;;;;;;;5042959;28;20114;-66
2022/05/06 08:36:37;;;;;;;10.82;9.73;;;;;;;;;;5040310;28;20469;-66
2022/05/06 08:39:04;;;;;;;11.95;9.52;;;;;;;;;;5039427;28;20100;-65
2022/05/06 08:41:30;;;;;;;19.95;10.15;;;;;;;;;;5019174;28;20131;-65
2022/05/06 08:43:57;;;;;;;15.27;10.25;;;;;;;;;;5047016;28;20041;-65
2022/05/06 08:51:56;;;;;;;10.68;9.18;;;;;;;;;;5037039;28;20393;-65
2022/05/06 08:54:23;;;;;;;18.27;8.93;;;;;;;;;;5041409;28;20044;-65
2022/05/06 08:56:49;;;;;;;10.10;9.00;;;;;;;;;;5040045;28;20475;-66
2022/05/06 08:59:15;;;;;;;16.38;8.93;;;;;;;;;;5039635;28;21403;-66
2022/05/06 09:01:41;;;;;;;10.27;9.27;;;;;;;;;;5042548;28;20408;-66
2022/05/06 09:04:08;;;;;;;11.05;8.50;;;;;;;;;;5019360;28;20549;-66
2022/05/06 09:06:34;;;;;;;10.90;8.85;;;;;;;;;;5043715;28;20041;-66
2022/05/06 09:09:01;;;;;;;10.57;8.82;;;;;;;;;;5041946;28;20041;-66
2022/05/06 09:16:39;;;;;;;13.05;8.93;;;;;;;;;;5017835;28;20050;-66
2022/05/06 09:17:21;;;;;;;10.27;8.47;;;;;;;;;;5044794;28;20107;-66
2022/05/06 09:19:47;;;;;;;11.77;9.10;;;;;;;;;;5044024;28;20295;-66
2022/05/06 09:22:14;;;;;;;11.90;9.30;;;;;;;;;;5020991;28;20123;-66
2022/05/06 09:24:47;;;;;;;10.25;6.30;;;;;;;;;;5047534;28;20066;-66
2022/05/06 09:27:14;;;;;;;7.50;5.22;;;;;;;;;;5046546;28;20040;-66
2022/05/06 09:29:42;;;;;;;13.13;6.80;;;;;;;;;;5025612;28;20041;-66
2022/05/06 09:32:27;;;;;;;7.28;5.75;;;;;;;;;;5019453;28;20037;-66
2022/05/06 09:34:54;;;;;;;6.60;5.90;;;;;;;;;;5046647;28;20398;-65
2022/05/06 09:37:32;;;;;;;13.38;7.68;;;;;;;;;;5049612;28;20040;-66
2022/05/06 09:40:12;;;;;;;6.93;6.10;;;;;;;;;;5023876;28;20524;-66
2022/05/06 09:42:39;;;;;;;8.90;6.95;;;;;;;;;;5044411;28;20029;-66
2022/05/06 09:45:05;;;;;;;7.93;7.13;;;;;;;;;;5045891;28;20049;-66
2022/05/06 09:47:35;;;;;;;9.27;7.20;;;;;;;;;;5023516;28;20033;-67
2022/05/06 09:50:05;;;;;;;8.02;6.80;;;;;;;;;;5000953;28;20060;-66
2022/05/06 09:52:31;;;;;;;17.05;6.72;;;;;;;;;;5043278;28;20035;-66
2022/05/06 09:54:57;;;;;;;12.98;6.00;;;;;;;;;;5046569;28;20088;-66
2022/05/06 09:57:24;;;;;;;8.80;5.68;;;;;;;;;;5022886;28;20049;-66
2022/05/06 09:59:50;;;;;;;7.97;6.00;;;;;;;;;;5046543;28;20493;-65
2022/05/06 10:02:17;;;;;;;5.63;5.05;;;;;;;;;;5044517;28;20040;-65
2022/05/06 10:04:44;;;;;;;10.20;5.22;;;;;;;;;;5046242;28;20053;-67
2022/05/06 10:07:14;;;;;;;14.73;5.70;;;;;;;;;;5045915;28;20032;-66
2022/05/06 10:09:59;;;;;;;9.93;5.68;;;;;;;;;;5021898;28;20049;-66
2022/05/06 10:12:26;;;;;;;13.07;5.63;;;;;;;;;;5022565;28;20041;-66
2022/05/06 10:14:54;;;;;;;8.43;5.68;;;;;;;;;;5041248;28;20400;-67
2022/05/06 10:17:38;;;;;;;7.65;5.20;;;;;;;;;;5020191;28;20033;-66
2022/05/06 10:20:05;;;;;;;6.82;5.32;;;;;;;;;;5019909;28;20045;-61
2022/05/06 10:22:49;;;;;;;6.78;5.90;;;;;;;;;;5023566;28;20051;-67
2022/05/06 10:25:34;;;;;;;11.48;5.18;;;;;;;;;;5022531;28;20119;-66
2022/05/06 10:34:11;;;;;;;6.03;5.20;;;;;;;;;;5038947;28;20096;-66
2022/05/06 10:36:51;;;;;;;11.48;5.75;;;;;;;;;;5043153;28;20049;-67
2022/05/06 10:39:27;;;;;;;10.40;5.13;;;;;;;;;;5022958;28;20037;-67
2022/05/06 10:42:10;;;;;;;9.95;4.80;;;;;;;;;;5021108;28;20373;-66
2022/05/06 10:44:40;;;;;;;23.45;5.82;;;;;;;;;;5022753;28;21279;-66
2022/05/06 10:47:12;;;;;;;19.92;5.18;;;;;;;;;;5036004;28;20508;-66
2022/05/06 10:49:38;;;;;;;8.93;4.93;;;;;;;;;;5046354;28;20037;-66
2022/05/06 10:52:17;;;;;;;5.65;4.72;;;;;;;;;;5019551;28;20036;-67
2022/05/06 10:54:47;;;;;;;7.63;5.78;;;;;;;;;;5021820;28;20075;-66
2022/05/06 10:57:14;;;;;;;7.22;4.78;;;;;;;;;;5018229;28;20444;-66
2022/05/06 10:59:52;;;;;;;7.22;6.53;;;;;;;;;;5020759;28;20041;-66
2022/05/06 11:02:18;;;;;;;5.18;4.00;;;;;;;;;;5022177;28;20080;-67
2022/05/06 11:04:51;;;;;;;5.55;3.38;;;;;;;;;;5022069;28;20048;-66
2022/05/06 11:07:17;;;;;;;6.45;4.90;;;;;;;;;;5019583;28;20532;-66
2022/05/06 11:09:44;;;;;;;12.40;4.72;;;;;;;;;;5021452;28;20128;-66
2022/05/06 11:12:10;;;;;;;9.75;5.10;;;;;;;;;;5044658;28;20033;-66
2022/05/06 11:14:36;;;;;;;10.38;5.35;;;;;;;;;;5025900;28;20041;-66
2022/05/06 11:17:15;;;;;;;7.80;5.35;;;;;;;;;;5023556;28;20060;-66
2022/05/06 11:19:41;;;;;;;8.75;5.22;;;;;;;;;;5020902;28;20045;-66
2022/05/06 11:22:08;;;;;;;7.55;4.80;;;;;;;;;;5044372;28;20609;-66
2022/05/06 11:24:34;;;;;;;5.15;4.15;;;;;;;;;;5044522;28;20433;-66
2022/05/06 11:27:16;;;;;;;7.78;5.50;;;;;;;;;;5045488;28;20033;-67
2022/05/06 11:29:48;;;;;;;8.43;5.45;;;;;;;;;;5022697;28;20404;-66
2022/05/06 11:32:15;;;;;;;11.43;6.60;;;;;;;;;;5045463;28;20048;-67
2022/05/06 11:34:59;;;;;;;10.95;6.65;;;;;;;;;;5046717;28;20045;-67
2022/05/06 11:37:26;;;;;;;9.88;5.72;;;;;;;;;;5041734;28;20110;-66
2022/05/06 11:40:18;;;;;;;17.25;6.00;;;;;;;;;;5044582;28;20724;-66
2022/05/06 11:42:39;;;;;;;12.55;5.95;;;;;;;;;;5005766;28;20053;-66
2022/05/06 11:47:50;;;;;;;8.23;5.70;;;;;;;;;;5039300;28;20056;-67
2022/05/06 11:50:17;;;;;;;8.68;5.30;;;;;;;;;;5015290;28;20515;-67
2022/05/06 11:52:46;;;;;;;15.73;6.57;;;;;;;;;;5040175;28;20033;-67
2022/05/06 11:55:13;;;;;;;8.73;5.85;;;;;;;;;;5044610;28;20171;-67
2022/05/06 11:57:40;;;;;;;7.32;5.45;;;;;;;;;;5044664;28;20036;-66
2022/05/06 12:00:06;;;;;;;7.97;5.20;;;;;;;;;;5003813;28;20045;-66
2022/05/06 12:02:33;;;;;;;5.85;4.78;;;;;;;;;;5023136;28;20107;-67
2022/05/06 12:04:59;;;;;;;7.22;5.13;;;;;;;;;;5046260;28;20040;-66
2022/05/06 12:07:45;;;;;;;7.40;4.70;;;;;;;;;;5044695;28;20037;-66
2022/05/06 12:10:22;;;;;;;8.77;5.18;;;;;;;;;;5043025;28;20076;-66
2022/05/06 12:12:52;;;;;;;10.75;5.68;;;;;;;;;;5044135;28;20032;-66
2022/05/06 12:15:18;;;;;;;7.07;4.25;;;;;;;;;;5018712;28;20270;-67
2022/05/06 12:17:44;;;;;;;5.10;2.90;;;;;;;;;;5047034;28;20056;-67
2022/05/06 12:20:29;;;;;;;5.25;3.17;;;;;;;;;;5018239;28;20049;-67
2022/05/06 12:22:58;;;;;;;4.63;2.75;;;;;;;;;;5040813;28;20119;-67
2022/05/06 12:25:24;;;;;;;5.88;3.33;;;;;;;;;;5042551;28;20441;-67
2022/05/06 12:28:03;;;;;;;8.25;3.53;;;;;;;;;;5042508;28;20052;-67
2022/05/06 12:30:32;;;;;;;6.93;3.50;;;;;;;;;;5044755;28;20040;-67
2022/05/06 12:33:05;;;;;;;6.07;3.17;;;;;;;;;;5042411;28;20036;-67
2022/05/06 12:35:32;;;;;;;4.93;2.80;;;;;;;;;;5019107;28;20048;-66
2022/05/06 12:37:59;;;;;;;3.75;2.33;;;;;;;;;;5019005;28;20547;-67
2022/05/06 12:40:29;;;;;;;5.38;3.10;;;;;;;;;;5019327;28;20044;-66
2022/05/06 12:43:08;;;;;;;5.78;2.40;;;;;;;;;;5016580;28;20102;-66
2022/05/06 12:45:34;;;;;;;5.57;3.13;;;;;;;;;;5019648;28;20084;-67
2022/05/06 12:50:45;;;;;;;7.40;2.83;;;;;;;;;;5046369;28;20171;-67
2022/05/06 12:53:11;;;;;;;5.85;2.78;;;;;;;;;;5047919;28;20048;-66
2022/05/06 12:55:38;;;;;;;7.78;3.00;;;;;;;;;;5049744;28;20136;-66
2022/05/06 12:58:04;;;;;;;2.88;1.92;;;;;;;;;;5050379;28;20544;-66
2022/05/06 13:00:31;;;;;;;8.00;2.30;;;;;;;;;;5048097;28;20414;-66
2022/05/06 13:02:58;;;;;;;6.30;2.78;;;;;;;;;;5049382;28;20477;-66
2022/05/06 13:05:24;;;;;;;5.57;2.97;;;;;;;;;;5048483;28;20397;-67
2022/05/06 13:07:50;;;;;;;5.70;2.45;;;;;;;;;;5051486;28;20171;-67
2022/05/06 13:10:16;;;;;;;9.85;2.95;;;;;;;;;;5046638;28;20079;-67
2022/05/06 13:12:45;;;;;;;9.27;2.42;;;;;;;;;;5027059;28;20606;-66
2022/05/06 13:15:11;;;;;;;5.10;2.95;;;;;;;;;;5046620;28;20060;-66
2022/05/06 13:17:37;;;;;;;7.28;2.92;;;;;;;;;;5025792;28;20072;-66
2022/05/06 13:20:04;;;;;;;23.65;3.58;;;;;;;;;;5026021;28;20095;-66
2022/05/06 13:22:30;;;;;;;19.55;3.10;;;;;;;;;;5051492;28;20037;-66
2022/05/06 13:24:57;;;;;;;5.25;2.65;;;;;;;;;;5051946;28;20083;-66
2022/05/06 13:27:23;;;;;;;11.80;3.13;;;;;;;;;;5024501;28;20194;-66
2022/05/06 13:29:49;;;;;;;7.40;2.80;;;;;;;;;;5027605;28;20056;-67
2022/05/06 13:32:15;;;;;;;6.18;2.80;;;;;;;;;;5007638;28;20045;-67
2022/05/06 13:34:41;;;;;;;5.53;2.67;;;;;;;;;;5049538;28;20040;-67
2022/05/06 13:37:08;;;;;;;6.70;3.30;;;;;;;;;;5027146;28;20048;-67
2022/05/06 13:39:34;;;;;;;19.23;3.67;;;;;;;;;;5025002;28;20056;-67
2022/05/06 13:42:00;;;;;;;6.90;4.43;;;;;;;;;;5051364;28;20045;-67
2022/05/06 13:44:26;;;;;;;6.55;4.22;;;;;;;;;;5049871;28;20107;-67
2022/05/06 13:46:52;;;;;;;7.07;3.92;;;;;;;;;;5024798;28;20057;-66
2022/05/06 13:49:19;;;;;;;8.90;4.25;;;;;;;;;;5048483;28;20036;-66
2022/05/06 13:51:45;;;;;;;8.57;4.55;;;;;;;;;;5048192;28;20186;-66
2022/05/06 13:54:11;;;;;;;8.95;5.70;;;;;;;;;;5026438;28;20036;-67
2022/05/06 13:59:22;;;;;;;9.07;4.95;;;;;;;;;;5046971;28;20041;-66
2022/05/06 14:01:49;;;;;;;7.97;5.10;;;;;;;;;;5027029;28;20037;-66
2022/05/06 14:04:15;;;;;;;9.00;5.22;;;;;;;;;;5021264;28;20052;-67
2022/05/06 14:06:41;;;;;;;9.30;5.57;;;;;;;;;;5028624;28;20191;-61
2022/05/06 14:09:07;;;;;;;7.38;5.63;;;;;;;;;;5043547;28;20045;-62
2022/05/06 14:11:33;;;;;;;9.55;6.45;;;;;;;;;;5024525;28;20032;-61
2022/05/06 14:14:00;;;;;;;12.70;7.78;;;;;;;;;;5024096;28;20063;-62
2022/05/06 14:16:27;;;;;;;12.63;7.55;;;;;;;;;;5022160;28;20041;-61
2022/05/06 14:18:54;;;;;;;11.20;7.50;;;;;;;;;;5043964;28;20064;-61
2022/05/06 14:21:21;;;;;;;15.00;7.78;;;;;;;;;;5046692;28;20033;-61
2022/05/06 14:23:47;;;;;;;9.95;7.40;;;;;;;;;;5043429;28;20057;-62
2022/05/06 14:26:13;;;;;;;11.90;7.18;;;;;;;;;;5024435;28;20052;-62
2022/05/06 14:28:39;;;;;;;17.30;7.85;;;;;;;;;;5044743;28;20047;-62
2022/05/06 14:31:06;;;;;;;10.32;6.75;;;;;;;;;;5047158;28;20037;-61
2022/05/06 14:33:32;;;;;;;18.85;7.60;;;;;;;;;;5047321;28;20041;-62
2022/05/06 14:35:58;;;;;;;9.30;6.43;;;;;;;;;;5026270;28;20056;-62
2022/05/06 14:38:24;;;;;;;9.63;7.50;;;;;;;;;;5044202;28;20107;-62
2022/05/06 14:40:50;;;;;;;9.00;6.60;;;;;;;;;;5020893;28;20436;-63
2022/05/06 14:43:16;;;;;;;14.35;7.70;;;;;;;;;;5045503;28;20107;-61
2022/05/06 14:45:42;;;;;;;8.18;6.40;;;;;;;;;;5044616;28;20057;-61
2022/05/06 14:48:09;;;;;;;8.05;6.07;;;;;;;;;;5044181;28;20526;-61
2022/05/06 14:50:35;;;;;;;8.80;5.60;;;;;;;;;;5043924;28;20048;-61
2022/05/06 14:53:01;;;;;;;8.95;5.60;;;;;;;;;;5027055;28;20033;-61
2022/05/06 14:55:27;;;;;;;8.85;6.35;;;;;;;;;;5018748;28;21305;-62
2022/05/06 14:57:53;;;;;;;9.02;5.88;;;;;;;;;;5026587;28;20481;-62
2022/05/06 15:00:19;;;;;;;8.60;6.03;;;;;;;;;;5044557;28;20045;-62
2022/05/06 15:02:45;;;;;;;9.80;5.53;;;;;;;;;;5044215;28;20472;-62
2022/05/06 15:05:11;;;;;;;10.30;6.03;;;;;;;;;;5005014;28;20139;-62
2022/05/06 15:07:38;;;;;;;8.85;6.47;;;;;;;;;;5022097;28;20076;-61
2022/05/06 15:10:04;;;;;;;10.40;6.82;;;;;;;;;;5044205;28;20044;-62
2022/05/06 15:12:31;;;;;;;11.38;6.93;;;;;;;;;;5044900;28;20040;-61
2022/05/06 15:14:57;;;;;;;12.63;6.30;;;;;;;;;;5016374;28;20099;-61
2022/05/06 15:17:23;;;;;;;13.20;7.13;;;;;;;;;;5042905;28;20102;-61
2022/05/06 15:19:49;;;;;;;9.45;6.85;;;;;;;;;;5044941;28;20040;-61
2022/05/06 15:22:16;;;;;;;10.82;7.85;;;;;;;;;;5019870;28;20088;-61
2022/05/06 15:24:42;;;;;;;11.05;7.55;;;;;;;;;;5045626;28;20463;-61